Historique des mesures à Cassis (13260), France
Quotidien Résumé Fevrier 24, 2017 Unités:  US    Métrique   Métrique/US
« Précédent (Jour)
Suivant (Jour) »
Quotidien Hebdomadaire Mensuel Annuel Période au choix
  Maximum: Minimum: Moyenne:
Température: 32 °F 48.6 °F 53.1 °F
Point de rosée: 32 °F 29.5 °F 40.5 °F
Humidité: Humidity % 40 % 61 %
Vitesse du vent: WindSpeedKMH mph 0.0 mph 14.2 mph
Rafales: WindSpeedGustKMH mph - -
Vent:- - SW
Pression: 0 in 29.7 in -
Précipitations: 0 in    
Historical Graphs
 
 
Mesures pour : Fevrier 24, 2017
Heure Temperature Point de rosée Pression Vent Vitesse du vent Rafales Humidité Pluie (par heure) Conditions
32 °F 32 °F 0 in Calm     Humidity % 0 in SoftwareType W/m2
00:10 54.3 °F 47.7 °F 29.8 in Calm     78 % 0 in open2300-1.11 W/m2
01:11 53.8 °F 47.8 °F 29.8 in Calm   1.4 mph 80 % 0 in open2300-1.11 W/m2
02:10 54.3 °F 48.6 °F 29.8 in Calm     81 % 0 in open2300-1.11 W/m2
03:11 54.3 °F 48.9 °F 29.8 in NE 3.5 mph 3.5 mph 82 % 0 in open2300-1.11 W/m2
04:10 54.3 °F 48.6 °F 29.8 in Calm   3.2 mph 81 % 0 in open2300-1.11 W/m2
05:11 54.1 °F 48.7 °F 29.8 in NW 7.2 mph 7.2 mph 82 % 0 in open2300-1.11 W/m2
06:10 54 °F 48.6 °F 29.7 in Calm   4.0 mph 82 % 0 in open2300-1.11 W/m2
07:11 53.8 °F 48 °F 29.7 in North 6.1 mph 6.1 mph 81 % 0 in open2300-1.11 W/m2
08:10 53.6 °F 47.3 °F 29.7 in North 6.1 mph 25.3 mph 79 % 0 in open2300-1.11 W/m2
09:11 54.7 °F 47.1 °F 29.7 in NNW 17.7 mph 17.7 mph 76 % 0 in open2300-1.11 W/m2
10:10 56.1 °F 46.6 °F 29.7 in NNW 11.1 mph 23.0 mph 70 % 0 in open2300-1.11 W/m2
11:11 56.5 °F 44.8 °F 29.7 in WNW 18.3 mph 21.6 mph 65 % 0 in open2300-1.11 W/m2
12:10 56.1 °F 43.7 °F 29.7 in NNW 6.1 mph 8.2 mph 63 % 0 in open2300-1.11 W/m2
13:11 56.8 °F 41.4 °F 29.7 in West 18.0 mph 26.2 mph 56 % 0 in open2300-1.11 W/m2
14:11 55.9 °F 37.9 °F 29.7 in NNE 9.3 mph 9.3 mph 51 % 0 in open2300-1.11 W/m2
15:11 56.1 °F 37.2 °F 29.7 in WNW 29.4 mph 29.4 mph 49 % 0 in open2300-1.11 W/m2
16:10 56.5 °F 33.6 °F 29.7 in NNW 19.1 mph 27.7 mph 42 % 0 in open2300-1.11 W/m2
17:11 55.2 °F 31.3 °F 29.7 in NNW 33.1 mph 33.1 mph 40 % 0 in open2300-1.11 W/m2
18:10 53.2 °F 30.6 °F 29.7 in NW 51.8 mph 51.8 mph 42 % 0 in open2300-1.11 W/m2
19:11 52 °F 29.5 °F 29.7 in NNW 27.0 mph 40.2 mph 42 % 0 in open2300-1.11 W/m2
20:10 50.9 °F 30.2 °F 29.7 in NNE 31.7 mph 31.7 mph 45 % 0 in open2300-1.11 W/m2
21:11 50 °F 30.6 °F 29.7 in North 14.3 mph 16.6 mph 47 % 0 in open2300-1.11 W/m2
22:10 49.3 °F 30.9 °F 29.7 in NNW 17.2 mph 50.4 mph 49 % 0 in open2300-1.11 W/m2
23:11 48.6 °F 30.7 °F 29.7 in NNW 27.4 mph 47.1 mph 50 % 0 in open2300-1.11 W/m2
Observations météo à CASSIS
WU-History script by Weather Underground - 1 mb